createdAt,value
2023-05-22T00:00:52.828Z,100212.69
2023-05-22T00:05:58.911Z,100222.06
2023-05-22T00:11:00.563Z,100222.03
2023-05-22T00:16:02.494Z,100213.91
2023-05-22T00:21:04.495Z,100214.66
2023-05-22T00:26:06.104Z,100210.28
2023-05-22T00:31:07.802Z,100204.81
2023-05-22T00:36:09.590Z,100202.31
2023-05-22T00:41:11.222Z,100195.41
2023-05-22T00:46:12.962Z,100190.53
2023-05-22T00:51:14.963Z,100197.81
2023-05-22T00:56:17.257Z,100196.38
2023-05-22T01:01:19.016Z,100178.44
2023-05-22T01:06:21.517Z,100188.81
2023-05-22T01:11:28.911Z,100190.25
2023-05-22T01:16:54.764Z,100194.59
2023-05-22T01:21:59.204Z,100200.38
2023-05-22T01:27:20.084Z,100202.66
2023-05-22T01:32:23.561Z,100207.31
2023-05-22T01:37:27.658Z,100214.22
2023-05-22T01:42:29.753Z,100212.31
2023-05-22T01:47:33.803Z,100200.63
2023-05-22T01:53:08.647Z,100208.91
2023-05-22T01:58:32.617Z,100205.06
2023-05-22T02:03:35.811Z,100202.94
2023-05-22T02:08:39.030Z,100206.66
2023-05-22T02:13:40.667Z,100201.25
2023-05-22T02:18:42.970Z,100203.28
2023-05-22T02:23:44.749Z,100210.91
2023-05-22T02:28:46.337Z,100197.13
2023-05-22T02:33:48.407Z,100197.78
2023-05-22T02:38:50.075Z,100191.09
2023-05-22T02:43:51.917Z,100198.13
2023-05-22T02:48:53.599Z,100188.44
2023-05-22T02:53:55.240Z,100186.38
2023-05-22T02:58:59.598Z,100177.59
2023-05-22T03:04:01.455Z,100178.78
2023-05-22T03:09:04.322Z,100181.72
2023-05-22T03:14:05.972Z,100176.66
2023-05-22T03:19:12.246Z,100176.81
2023-05-22T03:24:14.227Z,100172.69
2023-05-22T03:29:16.017Z,100160.78
2023-05-22T03:34:18.827Z,100159.56
2023-05-22T03:39:22.824Z,100159.44
2023-05-22T03:44:31.385Z,100167.53
2023-05-22T03:49:33.180Z,100166.00
2023-05-22T03:54:34.836Z,100164.66
2023-05-22T03:59:38.071Z,100167.59
2023-05-22T04:04:39.849Z,100160.38
2023-05-22T04:09:41.660Z,100163.25
2023-05-22T04:14:43.294Z,100166.69
2023-05-22T04:19:44.944Z,100158.81
2023-05-22T04:24:49.062Z,100170.00
2023-05-22T04:29:51.139Z,100167.31
2023-05-22T04:34:53.012Z,100162.84
2023-05-22T04:39:58.127Z,100170.19
2023-05-22T04:44:59.980Z,100172.63
2023-05-22T04:50:02.494Z,100170.41
2023-05-22T04:55:05.968Z,100178.28
2023-05-22T05:00:09.011Z,100177.31
2023-05-22T05:05:12.428Z,100176.44
2023-05-22T05:10:14.536Z,100169.00
2023-05-22T05:15:16.937Z,100173.56
2023-05-22T05:20:18.950Z,100163.63
2023-05-22T05:25:20.631Z,100168.28
2023-05-22T05:30:22.315Z,100165.78
2023-05-22T05:35:52.850Z,100175.00
2023-05-22T05:40:58.385Z,100175.44
2023-05-22T05:46:00.743Z,100179.16
2023-05-22T05:51:03.693Z,100175.63
2023-05-22T05:56:09.941Z,100165.59
2023-05-22T06:01:13.294Z,100168.94
2023-05-22T06:06:15.373Z,100170.81
2023-05-22T06:11:45.982Z,100166.44
2023-05-22T06:16:48.247Z,100160.78
2023-05-22T06:21:52.019Z,100165.16
2023-05-22T06:26:55.726Z,100158.06
2023-05-22T06:31:57.529Z,100162.16
2023-05-22T06:36:59.619Z,100156.66
2023-05-22T06:42:06.614Z,100152.16
2023-05-22T06:47:28.225Z,100147.31
2023-05-22T06:52:30.171Z,100153.03
2023-05-22T06:57:34.683Z,100156.97
2023-05-22T07:02:39.892Z,100147.34
2023-05-22T07:07:58.538Z,100150.97
2023-05-22T07:13:00.895Z,100146.13
2023-05-22T07:18:03.902Z,100144.38
2023-05-22T07:23:05.888Z,100147.91
2023-05-22T07:28:10.753Z,100147.72
2023-05-22T07:33:24.120Z,100138.19
2023-05-22T07:38:26.596Z,100135.13
2023-05-22T07:43:34.990Z,100135.97
2023-05-22T07:48:36.955Z,100130.66
2023-05-22T07:53:38.639Z,100125.75
2023-05-22T07:58:41.484Z,100125.75
2023-05-22T08:03:43.521Z,100121.28
2023-05-22T08:08:45.508Z,100112.81
2023-05-22T08:13:47.841Z,100112.84
2023-05-22T08:18:50.072Z,100115.25
2023-05-22T08:23:51.726Z,100120.09
2023-05-22T08:28:54.141Z,100111.31
2023-05-22T08:34:02.237Z,100107.50
2023-05-22T08:39:04.246Z,100103.25
2023-05-22T08:44:05.984Z,100107.19
2023-05-22T08:49:09.289Z,100100.50
2023-05-22T08:54:11.027Z,100102.50
2023-05-22T08:59:12.881Z,100088.16
2023-05-22T09:04:14.561Z,100088.31
2023-05-22T09:09:16.247Z,100075.56
2023-05-22T09:14:18.711Z,100070.19
2023-05-22T09:19:20.662Z,100072.06
2023-05-22T09:24:22.465Z,100081.16
2023-05-22T09:29:24.092Z,100074.03
2023-05-22T09:34:32.883Z,100073.72
2023-05-22T09:39:46.887Z,100071.97
2023-05-22T09:44:49.386Z,100074.19
2023-05-22T09:49:51.102Z,100075.78
2023-05-22T09:54:56.749Z,100073.72
2023-05-22T09:59:59.495Z,100073.66
2023-05-22T10:05:06.758Z,100070.72
2023-05-22T10:10:09.658Z,100065.72
2023-05-22T10:15:11.757Z,100066.22
2023-05-22T10:20:14.944Z,100064.72
2023-05-22T10:25:18.405Z,100065.38
2023-05-22T10:30:36.905Z,100061.03
2023-05-22T10:36:08.542Z,100060.03
2023-05-22T10:41:11.482Z,100059.66
2023-05-22T10:46:13.306Z,100051.31
2023-05-22T10:51:21.083Z,100056.22
2023-05-22T10:56:25.354Z,100046.59
2023-05-22T11:01:27.616Z,100046.09
2023-05-22T11:06:43.480Z,100029.44
2023-05-22T11:11:46.299Z,100026.94
2023-05-22T11:16:48.082Z,100040.63
2023-05-22T11:21:49.752Z,100026.44
2023-05-22T11:27:07.809Z,100011.25
2023-05-22T11:32:09.808Z,100012.84
2023-05-22T11:37:11.639Z,100010.84
2023-05-22T11:42:13.339Z,99997.81
2023-05-22T11:47:15.078Z,99989.78
2023-05-22T11:52:17.331Z,99989.44
2023-05-22T11:57:19.834Z,99980.00
2023-05-22T12:02:21.538Z,99990.03
2023-05-22T12:07:24.209Z,99980.00
2023-05-22T12:12:26.177Z,99984.72
2023-05-22T12:17:28.615Z,99973.03
2023-05-22T12:22:30.297Z,99974.69
2023-05-22T12:27:33.547Z,99967.84
2023-05-22T12:32:35.906Z,99961.09
2023-05-22T12:37:37.580Z,99961.19
2023-05-22T12:42:39.226Z,99974.19
2023-05-22T12:47:40.941Z,99965.22
2023-05-22T12:52:42.612Z,99957.91
2023-05-22T12:57:44.361Z,99958.91
2023-05-22T13:02:46.062Z,99943.56
2023-05-22T13:07:47.776Z,99945.56
2023-05-22T13:12:51.325Z,99945.19
2023-05-22T13:17:53.061Z,99940.09
2023-05-22T13:22:54.948Z,99947.94
2023-05-22T13:27:57.442Z,99937.81
2023-05-22T13:32:59.137Z,99923.34
2023-05-22T13:38:00.816Z,99913.59
2023-05-22T13:43:03.051Z,99913.22
2023-05-22T13:48:04.698Z,99913.13
2023-05-22T13:53:06.346Z,99906.09
2023-05-22T13:58:08.063Z,99905.50
2023-05-22T14:03:11.514Z,99897.84
2023-05-22T14:08:13.787Z,99892.69
2023-05-22T14:13:15.730Z,99895.69
2023-05-22T14:18:17.469Z,99884.97
2023-05-22T14:23:19.437Z,99885.34
2023-05-22T14:28:21.056Z,99885.25
2023-05-22T14:33:22.735Z,99885.09
2023-05-22T14:38:24.395Z,99879.03
2023-05-22T14:43:25.992Z,99879.16
2023-05-22T14:48:29.334Z,99875.47
2023-05-22T14:53:31.039Z,99869.41
2023-05-22T14:58:32.969Z,99874.34
2023-05-22T15:03:34.652Z,99862.00
2023-05-22T15:08:36.691Z,99866.84
2023-05-22T15:13:38.307Z,99859.06
2023-05-22T15:18:39.958Z,99861.13
2023-05-22T15:23:41.766Z,99849.75
2023-05-22T15:28:43.620Z,99854.09
2023-05-22T15:33:46.481Z,99847.97
2023-05-22T15:38:48.106Z,99843.56
2023-05-22T15:43:52.581Z,99849.81
2023-05-22T15:48:54.309Z,99839.81
2023-05-22T15:53:57.254Z,99835.00
2023-05-22T15:58:58.948Z,99832.38
2023-05-22T16:04:01.353Z,99827.13
2023-05-22T16:09:03.310Z,99829.53
2023-05-22T16:14:05.034Z,99814.25
2023-05-22T16:19:06.755Z,99817.19
2023-05-22T16:24:09.839Z,99819.03
2023-05-22T16:29:11.515Z,99816.63
2023-05-22T16:34:13.173Z,99820.34
2023-05-22T16:39:15.662Z,99811.81
2023-05-22T16:44:17.439Z,99817.78
2023-05-22T16:49:19.228Z,99810.00
2023-05-22T16:54:21.499Z,99810.78
2023-05-22T16:59:23.248Z,99810.59
2023-05-22T17:04:24.946Z,99806.97
2023-05-22T17:09:27.638Z,99804.97
2023-05-22T17:14:29.418Z,99808.94
2023-05-22T17:19:32.224Z,99808.75
2023-05-22T17:24:34.374Z,99806.44
2023-05-22T17:29:36.104Z,99812.84
2023-05-22T17:34:37.729Z,99801.50
2023-05-22T17:39:39.452Z,99812.34
2023-05-22T17:44:41.136Z,99807.00
2023-05-22T17:49:42.739Z,99809.16
2023-05-22T17:54:44.399Z,99819.41
2023-05-22T17:59:46.066Z,99826.16
2023-05-22T18:04:48.502Z,99818.72
2023-05-22T18:09:50.183Z,99818.28
2023-05-22T18:14:51.997Z,99823.03
2023-05-22T18:19:53.637Z,99815.00
2023-05-22T18:24:55.281Z,99805.28
2023-05-22T18:29:57.565Z,99803.97
2023-05-22T18:34:59.981Z,99803.25
2023-05-22T18:40:01.745Z,99804.00
2023-05-22T18:45:03.877Z,99804.50
2023-05-22T18:50:06.200Z,99807.09
2023-05-22T18:55:08.407Z,99814.34
2023-05-22T19:00:10.645Z,99823.13
2023-05-22T19:05:12.381Z,99824.53
2023-05-22T19:10:14.171Z,99826.53
2023-05-22T19:15:15.877Z,99833.78
2023-05-22T19:20:17.566Z,99829.47
2023-05-22T19:25:19.396Z,99818.69
2023-05-22T19:30:22.294Z,99822.13
2023-05-22T19:35:23.959Z,99822.00
2023-05-22T19:40:25.763Z,99825.41
2023-05-22T19:45:27.767Z,99833.47
2023-05-22T19:50:29.399Z,99835.00
2023-05-22T19:55:31.834Z,99838.38
2023-05-22T20:00:35.151Z,99837.94
2023-05-22T20:05:36.797Z,99846.78
2023-05-22T20:10:38.567Z,99839.56
2023-05-22T20:15:41.177Z,99836.91
2023-05-22T20:20:43.018Z,99831.56
2023-05-22T20:25:44.722Z,99835.03
2023-05-22T20:30:46.358Z,99840.09
2023-05-22T20:35:49.264Z,99831.81
2023-05-22T20:40:52.160Z,99827.66
2023-05-22T20:45:54.177Z,99837.78
2023-05-22T20:50:55.964Z,99824.50
2023-05-22T20:55:57.769Z,99831.69
2023-05-22T21:00:59.458Z,99815.91
2023-05-22T21:06:01.165Z,99815.28
2023-05-22T21:11:02.884Z,99817.88
2023-05-22T21:16:04.700Z,99817.13
2023-05-22T21:21:06.389Z,99809.25
2023-05-22T21:26:08.060Z,99808.28
2023-05-22T21:31:09.918Z,99807.91
2023-05-22T21:36:11.546Z,99807.75
2023-05-22T21:41:15.779Z,99807.38
2023-05-22T21:46:17.425Z,99806.56
2023-05-22T21:51:19.503Z,99806.63
2023-05-22T21:56:21.261Z,99805.22
2023-05-22T22:01:23.360Z,99794.41
2023-05-22T22:06:25.017Z,99799.63
2023-05-22T22:11:26.662Z,99813.56
2023-05-22T22:16:28.551Z,99807.81
2023-05-22T22:21:30.310Z,99818.81
2023-05-22T22:26:32.285Z,99812.56
2023-05-22T22:31:34.142Z,99807.75
2023-05-22T22:36:35.815Z,99817.19
2023-05-22T22:41:37.422Z,99821.13
2023-05-22T22:46:39.108Z,99823.03
2023-05-22T22:51:40.709Z,99819.31
2023-05-22T22:56:42.309Z,99814.94
2023-05-22T23:01:44.023Z,99820.41
2023-05-22T23:06:46.156Z,99807.78
2023-05-22T23:11:47.804Z,99810.22
2023-05-22T23:16:49.428Z,99790.88
2023-05-22T23:21:51.905Z,99785.91
2023-05-22T23:26:53.575Z,99775.25
2023-05-22T23:31:55.468Z,99779.00
2023-05-22T23:36:57.277Z,99784.34
2023-05-22T23:42:02.011Z,99781.19
2023-05-22T23:47:04.189Z,99787.66
2023-05-22T23:52:06.684Z,99777.97
2023-05-22T23:57:08.263Z,99792.59
